sensor_id;sensor_type;location;lat;lon;timestamp;temperature;humidity
21676;DHT22;10999;51.332;9.458;2023-05-07T00:01:29;13.30;90.20
21676;DHT22;10999;51.332;9.458;2023-05-07T00:03:56;13.30;90.30
21676;DHT22;10999;51.332;9.458;2023-05-07T00:06:23;13.30;90.50
21676;DHT22;10999;51.332;9.458;2023-05-07T00:08:50;13.30;90.40
21676;DHT22;10999;51.332;9.458;2023-05-07T00:11:17;13.30;90.60
21676;DHT22;10999;51.332;9.458;2023-05-07T00:13:43;13.30;90.70
21676;DHT22;10999;51.332;9.458;2023-05-07T00:16:10;13.30;90.80
21676;DHT22;10999;51.332;9.458;2023-05-07T00:18:37;13.20;90.90
21676;DHT22;10999;51.332;9.458;2023-05-07T00:21:03;13.20;91.00
21676;DHT22;10999;51.332;9.458;2023-05-07T00:23:30;13.20;91.20
21676;DHT22;10999;51.332;9.458;2023-05-07T00:25:57;13.10;91.40
21676;DHT22;10999;51.332;9.458;2023-05-07T00:28:25;13.20;91.50
21676;DHT22;10999;51.332;9.458;2023-05-07T00:30:52;13.10;91.20
21676;DHT22;10999;51.332;9.458;2023-05-07T00:33:18;13.10;91.30
21676;DHT22;10999;51.332;9.458;2023-05-07T00:35:47;13.10;91.30
21676;DHT22;10999;51.332;9.458;2023-05-07T00:38:14;13.00;91.20
21676;DHT22;10999;51.332;9.458;2023-05-07T00:40:40;13.00;91.50
21676;DHT22;10999;51.332;9.458;2023-05-07T00:43:07;12.90;91.70
21676;DHT22;10999;51.332;9.458;2023-05-07T00:45:34;13.00;91.90
21676;DHT22;10999;51.332;9.458;2023-05-07T00:48:02;12.90;92.00
21676;DHT22;10999;51.332;9.458;2023-05-07T00:50:29;12.90;91.90
21676;DHT22;10999;51.332;9.458;2023-05-07T00:52:57;12.90;92.20
21676;DHT22;10999;51.332;9.458;2023-05-07T00:55:23;12.90;93.00
21676;DHT22;10999;51.332;9.458;2023-05-07T00:57:50;12.90;92.40
21676;DHT22;10999;51.332;9.458;2023-05-07T01:00:17;12.80;92.50
21676;DHT22;10999;51.332;9.458;2023-05-07T01:02:46;12.80;92.50
21676;DHT22;10999;51.332;9.458;2023-05-07T01:05:16;12.80;92.60
21676;DHT22;10999;51.332;9.458;2023-05-07T01:07:44;12.80;92.50
21676;DHT22;10999;51.332;9.458;2023-05-07T01:10:12;12.70;92.60
21676;DHT22;10999;51.332;9.458;2023-05-07T01:12:40;12.70;92.60
21676;DHT22;10999;51.332;9.458;2023-05-07T01:15:09;12.70;92.70
21676;DHT22;10999;51.332;9.458;2023-05-07T01:17:40;12.70;92.80
21676;DHT22;10999;51.332;9.458;2023-05-07T01:20:08;12.70;92.70
21676;DHT22;10999;51.332;9.458;2023-05-07T01:22:38;12.70;92.70
21676;DHT22;10999;51.332;9.458;2023-05-07T01:25:05;12.70;92.60
21676;DHT22;10999;51.332;9.458;2023-05-07T01:27:34;12.70;92.60
21676;DHT22;10999;51.332;9.458;2023-05-07T01:30:02;12.70;92.70
21676;DHT22;10999;51.332;9.458;2023-05-07T01:32:51;12.70;92.70
21676;DHT22;10999;51.332;9.458;2023-05-07T01:35:20;12.70;92.70
21676;DHT22;10999;51.332;9.458;2023-05-07T01:37:49;12.60;92.40
21676;DHT22;10999;51.332;9.458;2023-05-07T01:40:16;12.60;92.40
21676;DHT22;10999;51.332;9.458;2023-05-07T01:42:43;12.60;92.40
21676;DHT22;10999;51.332;9.458;2023-05-07T01:45:10;12.60;92.20
21676;DHT22;10999;51.332;9.458;2023-05-07T01:47:38;12.60;92.20
21676;DHT22;10999;51.332;9.458;2023-05-07T01:50:06;12.60;91.90
21676;DHT22;10999;51.332;9.458;2023-05-07T01:52:38;12.60;91.70
21676;DHT22;10999;51.332;9.458;2023-05-07T01:55:06;12.60;91.60
21676;DHT22;10999;51.332;9.458;2023-05-07T01:57:33;12.60;91.40
21676;DHT22;10999;51.332;9.458;2023-05-07T02:00:00;12.50;91.50
21676;DHT22;10999;51.332;9.458;2023-05-07T02:02:26;12.50;91.70
21676;DHT22;10999;51.332;9.458;2023-05-07T02:04:53;12.50;91.80
21676;DHT22;10999;51.332;9.458;2023-05-07T02:07:20;12.50;92.10
21676;DHT22;10999;51.332;9.458;2023-05-07T02:09:46;12.50;92.30
21676;DHT22;10999;51.332;9.458;2023-05-07T02:12:13;12.40;92.50
21676;DHT22;10999;51.332;9.458;2023-05-07T02:14:40;12.40;93.30
21676;DHT22;10999;51.332;9.458;2023-05-07T02:17:07;12.40;92.60
21676;DHT22;10999;51.332;9.458;2023-05-07T02:19:34;12.40;92.50
21676;DHT22;10999;51.332;9.458;2023-05-07T02:22:00;12.40;92.70
21676;DHT22;10999;51.332;9.458;2023-05-07T02:24:27;12.30;92.90
21676;DHT22;10999;51.332;9.458;2023-05-07T02:26:54;12.30;93.10
21676;DHT22;10999;51.332;9.458;2023-05-07T02:29:20;12.30;93.20
21676;DHT22;10999;51.332;9.458;2023-05-07T02:31:47;12.30;93.20
21676;DHT22;10999;51.332;9.458;2023-05-07T02:34:17;12.30;93.60
21676;DHT22;10999;51.332;9.458;2023-05-07T02:36:43;12.30;93.70
21676;DHT22;10999;51.332;9.458;2023-05-07T02:39:10;12.20;93.50
21676;DHT22;10999;51.332;9.458;2023-05-07T02:41:37;12.20;93.70
21676;DHT22;10999;51.332;9.458;2023-05-07T02:44:04;12.20;93.90
21676;DHT22;10999;51.332;9.458;2023-05-07T02:46:31;12.20;93.80
21676;DHT22;10999;51.332;9.458;2023-05-07T02:48:57;12.20;93.80
21676;DHT22;10999;51.332;9.458;2023-05-07T02:51:26;12.10;93.90
21676;DHT22;10999;51.332;9.458;2023-05-07T02:53:53;12.10;94.00
21676;DHT22;10999;51.332;9.458;2023-05-07T02:56:20;12.10;94.20
21676;DHT22;10999;51.332;9.458;2023-05-07T02:58:47;12.10;94.10
21676;DHT22;10999;51.332;9.458;2023-05-07T03:01:14;12.10;93.60
21676;DHT22;10999;51.332;9.458;2023-05-07T03:03:41;12.10;93.80
21676;DHT22;10999;51.332;9.458;2023-05-07T03:06:07;12.10;93.70
21676;DHT22;10999;51.332;9.458;2023-05-07T03:08:34;12.10;93.60
21676;DHT22;10999;51.332;9.458;2023-05-07T03:11:01;12.10;93.40
21676;DHT22;10999;51.332;9.458;2023-05-07T03:13:28;12.10;93.10
21676;DHT22;10999;51.332;9.458;2023-05-07T03:15:55;12.00;93.10
21676;DHT22;10999;51.332;9.458;2023-05-07T03:18:21;12.00;93.30
21676;DHT22;10999;51.332;9.458;2023-05-07T03:20:48;12.00;93.60
21676;DHT22;10999;51.332;9.458;2023-05-07T03:23:15;12.00;93.80
21676;DHT22;10999;51.332;9.458;2023-05-07T03:25:41;12.00;93.90
21676;DHT22;10999;51.332;9.458;2023-05-07T03:28:08;12.00;94.20
21676;DHT22;10999;51.332;9.458;2023-05-07T03:30:35;12.00;95.20
21676;DHT22;10999;51.332;9.458;2023-05-07T03:33:01;11.90;94.70
21676;DHT22;10999;51.332;9.458;2023-05-07T03:35:28;11.90;94.90
21676;DHT22;10999;51.332;9.458;2023-05-07T03:37:55;11.90;94.80
21676;DHT22;10999;51.332;9.458;2023-05-07T03:40:22;11.90;95.20
21676;DHT22;10999;51.332;9.458;2023-05-07T03:42:48;11.80;95.40
21676;DHT22;10999;51.332;9.458;2023-05-07T03:45:15;11.80;95.50
21676;DHT22;10999;51.332;9.458;2023-05-07T03:47:42;11.70;95.80
21676;DHT22;10999;51.332;9.458;2023-05-07T03:50:09;11.70;96.00
21676;DHT22;10999;51.332;9.458;2023-05-07T03:52:37;11.70;96.20
21676;DHT22;10999;51.332;9.458;2023-05-07T03:55:04;11.70;96.20
21676;DHT22;10999;51.332;9.458;2023-05-07T03:57:32;11.70;96.50
21676;DHT22;10999;51.332;9.458;2023-05-07T03:59:59;11.70;96.60
21676;DHT22;10999;51.332;9.458;2023-05-07T04:02:25;11.60;96.60
21676;DHT22;10999;51.332;9.458;2023-05-07T04:04:52;11.70;96.80
21676;DHT22;10999;51.332;9.458;2023-05-07T04:07:19;11.60;96.80
21676;DHT22;10999;51.332;9.458;2023-05-07T04:09:45;11.60;96.80
21676;DHT22;10999;51.332;9.458;2023-05-07T04:12:12;11.60;96.90
21676;DHT22;10999;51.332;9.458;2023-05-07T04:14:39;11.50;97.30
21676;DHT22;10999;51.332;9.458;2023-05-07T04:17:05;11.50;97.40
21676;DHT22;10999;51.332;9.458;2023-05-07T04:19:33;11.50;97.60
21676;DHT22;10999;51.332;9.458;2023-05-07T04:22:00;11.40;97.60
21676;DHT22;10999;51.332;9.458;2023-05-07T04:24:27;11.40;97.90
21676;DHT22;10999;51.332;9.458;2023-05-07T04:26:53;11.40;98.10
21676;DHT22;10999;51.332;9.458;2023-05-07T04:29:21;11.40;98.40
21676;DHT22;10999;51.332;9.458;2023-05-07T04:31:48;11.30;98.70
21676;DHT22;10999;51.332;9.458;2023-05-07T04:34:14;11.30;98.80
21676;DHT22;10999;51.332;9.458;2023-05-07T04:36:42;11.20;98.90
21676;DHT22;10999;51.332;9.458;2023-05-07T04:39:08;11.20;99.00
21676;DHT22;10999;51.332;9.458;2023-05-07T04:41:36;11.30;99.50
21676;DHT22;10999;51.332;9.458;2023-05-07T04:44:03;11.20;99.40
21676;DHT22;10999;51.332;9.458;2023-05-07T04:46:30;11.20;99.50
21676;DHT22;10999;51.332;9.458;2023-05-07T04:48:57;11.20;99.50
21676;DHT22;10999;51.332;9.458;2023-05-07T04:51:24;11.20;99.60
21676;DHT22;10999;51.332;9.458;2023-05-07T04:53:50;11.10;99.60
21676;DHT22;10999;51.332;9.458;2023-05-07T04:56:17;11.10;99.60
21676;DHT22;10999;51.332;9.458;2023-05-07T04:58:44;11.10;99.50
21676;DHT22;10999;51.332;9.458;2023-05-07T05:01:11;11.10;99.90
21676;DHT22;10999;51.332;9.458;2023-05-07T05:03:37;11.20;99.90
21676;DHT22;10999;51.332;9.458;2023-05-07T05:06:06;11.20;99.80
21676;DHT22;10999;51.332;9.458;2023-05-07T05:08:32;11.20;99.90
21676;DHT22;10999;51.332;9.458;2023-05-07T05:11:01;11.20;99.60
21676;DHT22;10999;51.332;9.458;2023-05-07T05:13:28;11.20;99.50
21676;DHT22;10999;51.332;9.458;2023-05-07T05:15:55;11.20;99.50
21676;DHT22;10999;51.332;9.458;2023-05-07T05:18:22;11.30;99.40
21676;DHT22;10999;51.332;9.458;2023-05-07T05:20:49;11.20;99.30
21676;DHT22;10999;51.332;9.458;2023-05-07T05:23:17;11.30;99.40
21676;DHT22;10999;51.332;9.458;2023-05-07T05:25:44;11.30;99.40
21676;DHT22;10999;51.332;9.458;2023-05-07T05:28:11;11.30;99.30
21676;DHT22;10999;51.332;9.458;2023-05-07T05:30:39;11.30;99.20
21676;DHT22;10999;51.332;9.458;2023-05-07T05:33:05;11.40;99.40
21676;DHT22;10999;51.332;9.458;2023-05-07T05:35:32;11.40;99.30
21676;DHT22;10999;51.332;9.458;2023-05-07T05:37:59;11.40;99.10
21676;DHT22;10999;51.332;9.458;2023-05-07T05:40:26;11.40;99.10
21676;DHT22;10999;51.332;9.458;2023-05-07T05:42:53;11.40;98.80
21676;DHT22;10999;51.332;9.458;2023-05-07T05:45:20;11.40;98.50
21676;DHT22;10999;51.332;9.458;2023-05-07T05:47:46;11.50;98.90
21676;DHT22;10999;51.332;9.458;2023-05-07T05:50:16;11.50;98.90
21676;DHT22;10999;51.332;9.458;2023-05-07T05:52:43;11.50;99.10
21676;DHT22;10999;51.332;9.458;2023-05-07T05:55:09;11.60;99.20
21676;DHT22;10999;51.332;9.458;2023-05-07T05:57:36;11.70;99.10
21676;DHT22;10999;51.332;9.458;2023-05-07T06:00:04;11.70;98.30
21676;DHT22;10999;51.332;9.458;2023-05-07T06:02:31;11.70;97.90
21676;DHT22;10999;51.332;9.458;2023-05-07T06:04:57;11.70;97.20
21676;DHT22;10999;51.332;9.458;2023-05-07T06:07:24;11.70;97.10
21676;DHT22;10999;51.332;9.458;2023-05-07T06:09:51;11.70;97.10
21676;DHT22;10999;51.332;9.458;2023-05-07T06:12:18;11.70;96.70
21676;DHT22;10999;51.332;9.458;2023-05-07T06:14:44;11.70;96.70
21676;DHT22;10999;51.332;9.458;2023-05-07T06:17:11;11.70;96.70
21676;DHT22;10999;51.332;9.458;2023-05-07T06:19:38;11.70;97.10
21676;DHT22;10999;51.332;9.458;2023-05-07T06:22:05;11.80;96.90
21676;DHT22;10999;51.332;9.458;2023-05-07T06:24:31;11.80;96.30
21676;DHT22;10999;51.332;9.458;2023-05-07T06:26:58;11.80;96.40
21676;DHT22;10999;51.332;9.458;2023-05-07T06:29:25;11.90;96.40
21676;DHT22;10999;51.332;9.458;2023-05-07T06:31:53;11.90;96.70
21676;DHT22;10999;51.332;9.458;2023-05-07T06:34:20;12.00;96.00
21676;DHT22;10999;51.332;9.458;2023-05-07T06:36:47;12.00;95.30
21676;DHT22;10999;51.332;9.458;2023-05-07T06:39:13;12.10;94.50
21676;DHT22;10999;51.332;9.458;2023-05-07T06:41:40;12.10;94.50
21676;DHT22;10999;51.332;9.458;2023-05-07T06:44:07;12.10;94.10
21676;DHT22;10999;51.332;9.458;2023-05-07T06:46:35;12.10;94.20
21676;DHT22;10999;51.332;9.458;2023-05-07T06:49:05;12.20;93.80
21676;DHT22;10999;51.332;9.458;2023-05-07T06:51:31;12.20;93.80
21676;DHT22;10999;51.332;9.458;2023-05-07T06:53:58;12.30;93.80
21676;DHT22;10999;51.332;9.458;2023-05-07T06:56:25;12.30;93.20
21676;DHT22;10999;51.332;9.458;2023-05-07T06:58:52;12.30;93.00
21676;DHT22;10999;51.332;9.458;2023-05-07T07:01:18;12.40;92.40
21676;DHT22;10999;51.332;9.458;2023-05-07T07:03:45;12.40;91.40
21676;DHT22;10999;51.332;9.458;2023-05-07T07:06:12;12.40;92.20
21676;DHT22;10999;51.332;9.458;2023-05-07T07:08:39;12.40;91.80
21676;DHT22;10999;51.332;9.458;2023-05-07T07:11:06;12.40;92.10
21676;DHT22;10999;51.332;9.458;2023-05-07T07:13:32;12.60;92.70
21676;DHT22;10999;51.332;9.458;2023-05-07T07:15:59;12.60;92.70
21676;DHT22;10999;51.332;9.458;2023-05-07T07:18:26;12.70;92.70
21676;DHT22;10999;51.332;9.458;2023-05-07T07:20:53;12.80;92.00
21676;DHT22;10999;51.332;9.458;2023-05-07T07:23:20;12.90;91.80
21676;DHT22;10999;51.332;9.458;2023-05-07T07:25:47;12.90;91.80
21676;DHT22;10999;51.332;9.458;2023-05-07T07:28:14;13.00;91.20
21676;DHT22;10999;51.332;9.458;2023-05-07T07:30:41;13.10;91.00
21676;DHT22;10999;51.332;9.458;2023-05-07T07:33:08;13.20;90.40
21676;DHT22;10999;51.332;9.458;2023-05-07T07:35:35;13.30;89.90
21676;DHT22;10999;51.332;9.458;2023-05-07T07:38:01;13.30;87.90
21676;DHT22;10999;51.332;9.458;2023-05-07T07:40:28;13.40;87.00
21676;DHT22;10999;51.332;9.458;2023-05-07T07:42:56;13.60;87.90
21676;DHT22;10999;51.332;9.458;2023-05-07T07:45:23;13.70;86.60
21676;DHT22;10999;51.332;9.458;2023-05-07T07:47:50;13.80;85.30
21676;DHT22;10999;51.332;9.458;2023-05-07T07:50:16;13.90;83.20
21676;DHT22;10999;51.332;9.458;2023-05-07T07:53:01;13.90;82.20
21676;DHT22;10999;51.332;9.458;2023-05-07T07:55:28;13.90;80.10
21676;DHT22;10999;51.332;9.458;2023-05-07T07:57:55;14.00;81.10
21676;DHT22;10999;51.332;9.458;2023-05-07T08:00:22;14.10;82.20
21676;DHT22;10999;51.332;9.458;2023-05-07T08:02:48;14.20;81.00
21676;DHT22;10999;51.332;9.458;2023-05-07T08:05:16;14.20;80.50
21676;DHT22;10999;51.332;9.458;2023-05-07T08:07:43;14.30;80.00
21676;DHT22;10999;51.332;9.458;2023-05-07T08:10:10;14.30;80.30
21676;DHT22;10999;51.332;9.458;2023-05-07T08:12:37;14.30;79.10
21676;DHT22;10999;51.332;9.458;2023-05-07T08:15:04;14.40;79.10
21676;DHT22;10999;51.332;9.458;2023-05-07T08:17:31;14.40;76.70
21676;DHT22;10999;51.332;9.458;2023-05-07T08:19:58;14.50;77.80
21676;DHT22;10999;51.332;9.458;2023-05-07T08:22:24;14.50;77.80
21676;DHT22;10999;51.332;9.458;2023-05-07T08:24:51;14.60;79.70
21676;DHT22;10999;51.332;9.458;2023-05-07T08:27:19;14.70;77.30
21676;DHT22;10999;51.332;9.458;2023-05-07T08:29:46;14.70;76.10
21676;DHT22;10999;51.332;9.458;2023-05-07T08:32:14;14.90;77.90
21676;DHT22;10999;51.332;9.458;2023-05-07T08:34:41;15.10;75.40
21676;DHT22;10999;51.332;9.458;2023-05-07T08:37:08;15.30;76.20
21676;DHT22;10999;51.332;9.458;2023-05-07T08:39:34;15.60;72.00
21676;DHT22;10999;51.332;9.458;2023-05-07T08:42:01;15.70;69.50
21676;DHT22;10999;51.332;9.458;2023-05-07T08:44:34;15.60;68.90
21676;DHT22;10999;51.332;9.458;2023-05-07T08:47:02;15.70;67.80
21676;DHT22;10999;51.332;9.458;2023-05-07T08:49:29;15.80;71.10
21676;DHT22;10999;51.332;9.458;2023-05-07T08:51:55;16.00;68.20
21676;DHT22;10999;51.332;9.458;2023-05-07T08:54:23;16.10;66.80
21676;DHT22;10999;51.332;9.458;2023-05-07T08:56:50;16.10;63.10
21676;DHT22;10999;51.332;9.458;2023-05-07T08:59:18;16.10;65.30
21676;DHT22;10999;51.332;9.458;2023-05-07T09:01:45;16.10;62.30
21676;DHT22;10999;51.332;9.458;2023-05-07T09:04:12;16.00;63.40
21676;DHT22;10999;51.332;9.458;2023-05-07T09:06:39;15.80;64.50
21676;DHT22;10999;51.332;9.458;2023-05-07T09:09:08;15.80;66.20
21676;DHT22;10999;51.332;9.458;2023-05-07T09:11:34;15.70;65.70
21676;DHT22;10999;51.332;9.458;2023-05-07T09:14:01;15.70;65.80
21676;DHT22;10999;51.332;9.458;2023-05-07T09:16:30;15.70;65.20
21676;DHT22;10999;51.332;9.458;2023-05-07T09:18:58;15.70;66.60
21676;DHT22;10999;51.332;9.458;2023-05-07T09:21:26;15.80;65.30
21676;DHT22;10999;51.332;9.458;2023-05-07T09:23:55;16.00;65.70
21676;DHT22;10999;51.332;9.458;2023-05-07T09:26:23;16.00;63.60
21676;DHT22;10999;51.332;9.458;2023-05-07T09:28:50;16.10;62.70
21676;DHT22;10999;51.332;9.458;2023-05-07T09:31:18;16.30;65.50
21676;DHT22;10999;51.332;9.458;2023-05-07T09:33:47;16.50;61.10
21676;DHT22;10999;51.332;9.458;2023-05-07T09:36:13;16.40;61.30
21676;DHT22;10999;51.332;9.458;2023-05-07T09:38:40;16.50;62.20
21676;DHT22;10999;51.332;9.458;2023-05-07T09:41:09;16.40;60.00
21676;DHT22;10999;51.332;9.458;2023-05-07T09:43:38;16.50;61.20
21676;DHT22;10999;51.332;9.458;2023-05-07T09:46:12;16.40;61.50
21676;DHT22;10999;51.332;9.458;2023-05-07T09:48:41;16.40;60.30
21676;DHT22;10999;51.332;9.458;2023-05-07T09:51:24;16.30;59.70
21676;DHT22;10999;51.332;9.458;2023-05-07T09:53:53;16.40;61.70
21676;DHT22;10999;51.332;9.458;2023-05-07T09:56:21;16.30;59.60
21676;DHT22;10999;51.332;9.458;2023-05-07T09:58:48;16.30;60.60
21676;DHT22;10999;51.332;9.458;2023-05-07T10:01:17;16.20;61.40
21676;DHT22;10999;51.332;9.458;2023-05-07T10:03:45;16.20;62.60
21676;DHT22;10999;51.332;9.458;2023-05-07T10:06:13;16.20;61.80
21676;DHT22;10999;51.332;9.458;2023-05-07T10:08:42;16.50;61.70
21676;DHT22;10999;51.332;9.458;2023-05-07T10:11:09;16.70;60.00
21676;DHT22;10999;51.332;9.458;2023-05-07T10:13:36;17.10;61.20
21676;DHT22;10999;51.332;9.458;2023-05-07T10:16:04;17.40;56.00
21676;DHT22;10999;51.332;9.458;2023-05-07T10:18:32;17.70;57.10
21676;DHT22;10999;51.332;9.458;2023-05-07T10:21:07;17.60;51.30
21676;DHT22;10999;51.332;9.458;2023-05-07T10:23:35;17.40;51.80
21676;DHT22;10999;51.332;9.458;2023-05-07T10:26:04;17.20;52.70
21676;DHT22;10999;51.332;9.458;2023-05-07T10:28:38;17.20;54.80
21676;DHT22;10999;51.332;9.458;2023-05-07T10:33:54;16.90;57.70
21676;DHT22;10999;51.332;9.458;2023-05-07T10:36:22;16.90;54.80
21676;DHT22;10999;51.332;9.458;2023-05-07T10:38:50;16.80;56.40
21676;DHT22;10999;51.332;9.458;2023-05-07T10:41:17;16.90;57.30
21676;DHT22;10999;51.332;9.458;2023-05-07T10:43:45;17.10;55.50
21676;DHT22;10999;51.332;9.458;2023-05-07T10:46:19;17.20;55.00
21676;DHT22;10999;51.332;9.458;2023-05-07T10:51:33;17.50;54.00
21676;DHT22;10999;51.332;9.458;2023-05-07T10:56:39;17.50;51.90
21676;DHT22;10999;51.332;9.458;2023-05-07T11:01:55;17.60;51.60
21676;DHT22;10999;51.332;9.458;2023-05-07T11:04:25;17.60;51.20
21676;DHT22;10999;51.332;9.458;2023-05-07T11:09:56;17.60;50.70
21676;DHT22;10999;51.332;9.458;2023-05-07T11:15:11;17.70;49.40
21676;DHT22;10999;51.332;9.458;2023-05-07T11:17:57;17.50;49.60
21676;DHT22;10999;51.332;9.458;2023-05-07T11:20:47;17.60;50.90
21676;DHT22;10999;51.332;9.458;2023-05-07T11:26:04;18.00;50.30
21676;DHT22;10999;51.332;9.458;2023-05-07T11:28:37;18.40;50.00
21676;DHT22;10999;51.332;9.458;2023-05-07T11:31:04;18.50;52.10
21676;DHT22;10999;51.332;9.458;2023-05-07T11:33:32;18.80;47.40
21676;DHT22;10999;51.332;9.458;2023-05-07T11:36:00;18.90;46.50
21676;DHT22;10999;51.332;9.458;2023-05-07T11:38:27;18.80;45.60
21676;DHT22;10999;51.332;9.458;2023-05-07T11:40:56;18.70;45.20
21676;DHT22;10999;51.332;9.458;2023-05-07T11:43:23;18.60;44.20
21676;DHT22;10999;51.332;9.458;2023-05-07T11:45:50;18.50;44.50
21676;DHT22;10999;51.332;9.458;2023-05-07T11:48:17;18.50;46.70
21676;DHT22;10999;51.332;9.458;2023-05-07T11:51:01;18.50;45.00
21676;DHT22;10999;51.332;9.458;2023-05-07T11:53:37;18.60;47.20
21676;DHT22;10999;51.332;9.458;2023-05-07T11:56:11;18.80;45.60
21676;DHT22;10999;51.332;9.458;2023-05-07T11:58:39;18.80;44.00
21676;DHT22;10999;51.332;9.458;2023-05-07T12:01:08;18.80;44.70
21676;DHT22;10999;51.332;9.458;2023-05-07T12:03:41;19.00;47.90
21676;DHT22;10999;51.332;9.458;2023-05-07T12:06:14;19.20;44.30
21676;DHT22;10999;51.332;9.458;2023-05-07T12:08:42;19.00;42.30
21676;DHT22;10999;51.332;9.458;2023-05-07T12:11:21;19.10;42.00
21676;DHT22;10999;51.332;9.458;2023-05-07T12:13:49;18.90;44.40
21676;DHT22;10999;51.332;9.458;2023-05-07T12:16:16;19.00;43.80
21676;DHT22;10999;51.332;9.458;2023-05-07T12:18:42;19.00;42.10
21676;DHT22;10999;51.332;9.458;2023-05-07T12:21:11;18.80;42.90
21676;DHT22;10999;51.332;9.458;2023-05-07T12:23:39;18.90;43.60
21676;DHT22;10999;51.332;9.458;2023-05-07T12:26:06;18.70;42.60
21676;DHT22;10999;51.332;9.458;2023-05-07T12:28:37;18.30;43.30
21676;DHT22;10999;51.332;9.458;2023-05-07T12:31:07;17.90;45.30
21676;DHT22;10999;51.332;9.458;2023-05-07T12:33:35;17.90;50.10
21676;DHT22;10999;51.332;9.458;2023-05-07T12:36:08;18.00;47.50
21676;DHT22;10999;51.332;9.458;2023-05-07T12:38:36;18.20;49.00
21676;DHT22;10999;51.332;9.458;2023-05-07T12:41:04;18.40;47.00
21676;DHT22;10999;51.332;9.458;2023-05-07T12:43:31;18.50;46.10
21676;DHT22;10999;51.332;9.458;2023-05-07T12:46:00;18.50;44.90
21676;DHT22;10999;51.332;9.458;2023-05-07T12:48:27;18.50;44.90
21676;DHT22;10999;51.332;9.458;2023-05-07T12:50:59;18.50;46.50
21676;DHT22;10999;51.332;9.458;2023-05-07T12:53:28;18.40;44.10
21676;DHT22;10999;51.332;9.458;2023-05-07T12:55:56;18.10;44.50
21676;DHT22;10999;51.332;9.458;2023-05-07T12:58:26;17.90;46.10
21676;DHT22;10999;51.332;9.458;2023-05-07T13:00:59;17.80;47.30
21676;DHT22;10999;51.332;9.458;2023-05-07T13:03:34;17.90;48.60
21676;DHT22;10999;51.332;9.458;2023-05-07T13:06:04;18.00;46.60
21676;DHT22;10999;51.332;9.458;2023-05-07T13:08:36;18.10;48.10
21676;DHT22;10999;51.332;9.458;2023-05-07T13:11:04;18.20;45.80
21676;DHT22;10999;51.332;9.458;2023-05-07T13:13:32;18.30;47.10
21676;DHT22;10999;51.332;9.458;2023-05-07T13:15:59;18.50;46.70
21676;DHT22;10999;51.332;9.458;2023-05-07T13:18:28;18.60;45.60
21676;DHT22;10999;51.332;9.458;2023-05-07T13:20:56;18.60;42.30
21676;DHT22;10999;51.332;9.458;2023-05-07T13:23:23;18.60;46.10
21676;DHT22;10999;51.332;9.458;2023-05-07T13:25:50;18.60;45.00
21676;DHT22;10999;51.332;9.458;2023-05-07T13:28:17;18.40;44.60
21676;DHT22;10999;51.332;9.458;2023-05-07T13:30:43;18.20;44.50
21676;DHT22;10999;51.332;9.458;2023-05-07T13:33:11;17.90;45.40
21676;DHT22;10999;51.332;9.458;2023-05-07T13:35:37;17.70;46.20
21676;DHT22;10999;51.332;9.458;2023-05-07T13:38:04;17.40;48.00
21676;DHT22;10999;51.332;9.458;2023-05-07T13:40:31;17.30;48.90
21676;DHT22;10999;51.332;9.458;2023-05-07T13:42:58;17.20;49.00
21676;DHT22;10999;51.332;9.458;2023-05-07T13:45:27;17.20;50.70
21676;DHT22;10999;51.332;9.458;2023-05-07T13:47:56;17.10;50.20
21676;DHT22;10999;51.332;9.458;2023-05-07T13:50:23;17.20;48.90
21676;DHT22;10999;51.332;9.458;2023-05-07T13:52:50;17.20;49.60
21676;DHT22;10999;51.332;9.458;2023-05-07T13:55:18;17.20;50.30
21676;DHT22;10999;51.332;9.458;2023-05-07T13:57:45;17.30;49.60
21676;DHT22;10999;51.332;9.458;2023-05-07T14:00:13;17.30;47.40
21676;DHT22;10999;51.332;9.458;2023-05-07T14:02:41;17.30;49.00
21676;DHT22;10999;51.332;9.458;2023-05-07T14:05:08;17.20;47.60
21676;DHT22;10999;51.332;9.458;2023-05-07T14:07:36;17.20;48.40
21676;DHT22;10999;51.332;9.458;2023-05-07T14:10:03;17.10;48.60
21676;DHT22;10999;51.332;9.458;2023-05-07T14:12:31;17.10;49.90
21676;DHT22;10999;51.332;9.458;2023-05-07T14:14:57;17.40;49.30
21676;DHT22;10999;51.332;9.458;2023-05-07T14:17:24;17.50;48.80
21676;DHT22;10999;51.332;9.458;2023-05-07T14:19:54;17.60;45.40
21676;DHT22;10999;51.332;9.458;2023-05-07T14:22:21;17.60;45.30
21676;DHT22;10999;51.332;9.458;2023-05-07T14:24:49;17.80;46.80
21676;DHT22;10999;51.332;9.458;2023-05-07T14:27:32;17.80;43.70
21676;DHT22;10999;51.332;9.458;2023-05-07T14:29:58;17.70;45.30
21676;DHT22;10999;51.332;9.458;2023-05-07T14:32:25;17.80;45.00
21676;DHT22;10999;51.332;9.458;2023-05-07T14:34:52;17.80;43.40
21676;DHT22;10999;51.332;9.458;2023-05-07T14:37:19;17.70;44.40
21676;DHT22;10999;51.332;9.458;2023-05-07T14:39:46;17.70;45.00
21676;DHT22;10999;51.332;9.458;2023-05-07T14:42:16;17.80;43.10
21676;DHT22;10999;51.332;9.458;2023-05-07T14:44:42;17.80;43.70
21676;DHT22;10999;51.332;9.458;2023-05-07T14:47:11;18.00;45.10
21676;DHT22;10999;51.332;9.458;2023-05-07T14:49:38;18.00;43.30
21676;DHT22;10999;51.332;9.458;2023-05-07T14:52:05;18.00;42.70
21676;DHT22;10999;51.332;9.458;2023-05-07T14:54:36;18.00;42.80
21676;DHT22;10999;51.332;9.458;2023-05-07T14:57:05;18.00;41.90
21676;DHT22;10999;51.332;9.458;2023-05-07T14:59:32;18.10;43.00
21676;DHT22;10999;51.332;9.458;2023-05-07T15:01:58;18.00;41.50
21676;DHT22;10999;51.332;9.458;2023-05-07T15:04:25;17.90;41.90
21676;DHT22;10999;51.332;9.458;2023-05-07T15:06:52;17.80;41.10
21676;DHT22;10999;51.332;9.458;2023-05-07T15:09:20;17.80;42.80
21676;DHT22;10999;51.332;9.458;2023-05-07T15:11:47;17.80;43.30
21676;DHT22;10999;51.332;9.458;2023-05-07T15:14:13;17.80;42.40
21676;DHT22;10999;51.332;9.458;2023-05-07T15:16:41;17.80;42.60
21676;DHT22;10999;51.332;9.458;2023-05-07T15:19:07;17.70;42.30
21676;DHT22;10999;51.332;9.458;2023-05-07T15:21:34;17.60;42.30
21676;DHT22;10999;51.332;9.458;2023-05-07T15:24:02;17.70;43.40
21676;DHT22;10999;51.332;9.458;2023-05-07T15:26:29;17.60;42.90
21676;DHT22;10999;51.332;9.458;2023-05-07T15:28:56;17.70;45.10
21676;DHT22;10999;51.332;9.458;2023-05-07T15:31:24;17.80;44.30
21676;DHT22;10999;51.332;9.458;2023-05-07T15:33:52;17.70;42.00
21676;DHT22;10999;51.332;9.458;2023-05-07T15:36:20;17.70;42.60
21676;DHT22;10999;51.332;9.458;2023-05-07T15:38:47;17.50;42.00
21676;DHT22;10999;51.332;9.458;2023-05-07T15:41:14;17.40;43.20
21676;DHT22;10999;51.332;9.458;2023-05-07T15:43:45;17.40;43.00
21676;DHT22;10999;51.332;9.458;2023-05-07T15:46:13;17.40;43.50
21676;DHT22;10999;51.332;9.458;2023-05-07T15:48:43;17.20;43.30
21676;DHT22;10999;51.332;9.458;2023-05-07T15:51:10;17.20;43.80
21676;DHT22;10999;51.332;9.458;2023-05-07T15:53:38;16.90;43.60